sensor_id;sensor_type;location;lat;lon;timestamp;temperature;humidity
17571;DHT22;8903;52.220;20.978;2023-07-13T00:01:46;19.60;99.90
17571;DHT22;8903;52.220;20.978;2023-07-13T00:04:16;19.60;99.90
17571;DHT22;8903;52.220;20.978;2023-07-13T00:06:45;19.60;99.90
17571;DHT22;8903;52.220;20.978;2023-07-13T00:09:13;19.60;99.90
17571;DHT22;8903;52.220;20.978;2023-07-13T00:11:41;19.50;99.90
17571;DHT22;8903;52.220;20.978;2023-07-13T00:14:08;19.50;99.90
17571;DHT22;8903;52.220;20.978;2023-07-13T00:16:37;19.50;99.90
17571;DHT22;8903;52.220;20.978;2023-07-13T00:19:06;19.40;99.90
17571;DHT22;8903;52.220;20.978;2023-07-13T00:21:33;19.40;99.90
17571;DHT22;8903;52.220;20.978;2023-07-13T00:24:02;19.40;99.90
17571;DHT22;8903;52.220;20.978;2023-07-13T00:26:29;19.40;99.90
17571;DHT22;8903;52.220;20.978;2023-07-13T00:28:58;19.40;99.90
17571;DHT22;8903;52.220;20.978;2023-07-13T00:31:25;19.40;99.90
17571;DHT22;8903;52.220;20.978;2023-07-13T00:33:52;19.40;99.90
17571;DHT22;8903;52.220;20.978;2023-07-13T00:36:20;19.40;99.90
17571;DHT22;8903;52.220;20.978;2023-07-13T00:38:47;19.40;99.90
17571;DHT22;8903;52.220;20.978;2023-07-13T00:41:15;19.40;99.90
17571;DHT22;8903;52.220;20.978;2023-07-13T00:43:43;19.40;99.90
17571;DHT22;8903;52.220;20.978;2023-07-13T00:46:14;19.40;99.90
17571;DHT22;8903;52.220;20.978;2023-07-13T00:48:43;19.40;99.90
17571;DHT22;8903;52.220;20.978;2023-07-13T00:51:11;19.40;99.90
17571;DHT22;8903;52.220;20.978;2023-07-13T00:53:40;19.40;99.90
17571;DHT22;8903;52.220;20.978;2023-07-13T00:56:08;19.30;99.90
17571;DHT22;8903;52.220;20.978;2023-07-13T00:58:38;19.30;99.90
17571;DHT22;8903;52.220;20.978;2023-07-13T01:01:05;19.30;99.90
17571;DHT22;8903;52.220;20.978;2023-07-13T01:03:32;19.30;99.90
17571;DHT22;8903;52.220;20.978;2023-07-13T01:06:01;19.30;99.90
17571;DHT22;8903;52.220;20.978;2023-07-13T01:08:28;19.30;99.90
17571;DHT22;8903;52.220;20.978;2023-07-13T01:10:56;19.30;99.90
17571;DHT22;8903;52.220;20.978;2023-07-13T01:13:24;19.30;99.90
17571;DHT22;8903;52.220;20.978;2023-07-13T01:15:55;19.30;99.90
17571;DHT22;8903;52.220;20.978;2023-07-13T01:18:25;19.30;99.90
17571;DHT22;8903;52.220;20.978;2023-07-13T01:20:57;19.30;99.90
17571;DHT22;8903;52.220;20.978;2023-07-13T01:23:25;19.30;99.90
17571;DHT22;8903;52.220;20.978;2023-07-13T01:25:54;19.30;99.90
17571;DHT22;8903;52.220;20.978;2023-07-13T01:28:23;19.30;99.90
17571;DHT22;8903;52.220;20.978;2023-07-13T01:30:54;19.30;99.90
17571;DHT22;8903;52.220;20.978;2023-07-13T01:33:22;19.20;99.90
17571;DHT22;8903;52.220;20.978;2023-07-13T01:35:49;19.20;99.90
17571;DHT22;8903;52.220;20.978;2023-07-13T01:38:20;19.20;99.90
17571;DHT22;8903;52.220;20.978;2023-07-13T01:40:48;19.20;99.90
17571;DHT22;8903;52.220;20.978;2023-07-13T01:43:15;19.20;99.90
17571;DHT22;8903;52.220;20.978;2023-07-13T01:45:44;19.20;99.90
17571;DHT22;8903;52.220;20.978;2023-07-13T01:48:12;19.20;99.90
17571;DHT22;8903;52.220;20.978;2023-07-13T01:50:40;19.20;99.90
17571;DHT22;8903;52.220;20.978;2023-07-13T01:53:07;19.20;99.90
17571;DHT22;8903;52.220;20.978;2023-07-13T01:55:36;19.30;99.90
17571;DHT22;8903;52.220;20.978;2023-07-13T01:58:04;19.30;99.90
17571;DHT22;8903;52.220;20.978;2023-07-13T02:00:31;19.30;99.90
17571;DHT22;8903;52.220;20.978;2023-07-13T02:03:01;19.20;99.90
17571;DHT22;8903;52.220;20.978;2023-07-13T02:05:28;19.20;99.90
17571;DHT22;8903;52.220;20.978;2023-07-13T02:07:55;19.20;99.90
17571;DHT22;8903;52.220;20.978;2023-07-13T02:10:22;19.20;99.90
17571;DHT22;8903;52.220;20.978;2023-07-13T02:12:50;19.10;99.90
17571;DHT22;8903;52.220;20.978;2023-07-13T02:15:18;19.10;99.90
17571;DHT22;8903;52.220;20.978;2023-07-13T02:17:45;19.10;99.90
17571;DHT22;8903;52.220;20.978;2023-07-13T02:20:12;19.10;99.90
17571;DHT22;8903;52.220;20.978;2023-07-13T02:22:38;19.10;99.90
17571;DHT22;8903;52.220;20.978;2023-07-13T02:25:06;19.20;99.90
17571;DHT22;8903;52.220;20.978;2023-07-13T02:27:33;19.20;99.90
17571;DHT22;8903;52.220;20.978;2023-07-13T02:30:02;19.20;99.90
17571;DHT22;8903;52.220;20.978;2023-07-13T02:32:29;19.20;99.90
17571;DHT22;8903;52.220;20.978;2023-07-13T02:34:56;19.20;99.90
17571;DHT22;8903;52.220;20.978;2023-07-13T02:37:23;19.20;99.90
17571;DHT22;8903;52.220;20.978;2023-07-13T02:39:50;19.20;99.90
17571;DHT22;8903;52.220;20.978;2023-07-13T02:42:17;19.10;99.90
17571;DHT22;8903;52.220;20.978;2023-07-13T02:44:44;19.10;99.90
17571;DHT22;8903;52.220;20.978;2023-07-13T02:47:12;19.10;99.90
17571;DHT22;8903;52.220;20.978;2023-07-13T02:49:39;19.00;99.90
17571;DHT22;8903;52.220;20.978;2023-07-13T02:52:06;19.10;99.90
17571;DHT22;8903;52.220;20.978;2023-07-13T02:54:33;19.10;99.90
17571;DHT22;8903;52.220;20.978;2023-07-13T02:57:01;19.10;99.90
17571;DHT22;8903;52.220;20.978;2023-07-13T02:59:28;19.10;99.90
17571;DHT22;8903;52.220;20.978;2023-07-13T03:01:55;19.10;99.90
17571;DHT22;8903;52.220;20.978;2023-07-13T03:04:23;19.10;99.90
17571;DHT22;8903;52.220;20.978;2023-07-13T03:06:51;19.00;99.90
17571;DHT22;8903;52.220;20.978;2023-07-13T03:09:18;19.00;99.90
17571;DHT22;8903;52.220;20.978;2023-07-13T03:11:53;19.00;99.90
17571;DHT22;8903;52.220;20.978;2023-07-13T03:14:26;19.00;99.90
17571;DHT22;8903;52.220;20.978;2023-07-13T03:16:53;19.10;99.90
17571;DHT22;8903;52.220;20.978;2023-07-13T03:19:26;19.10;99.90
17571;DHT22;8903;52.220;20.978;2023-07-13T03:21:54;19.10;99.90
17571;DHT22;8903;52.220;20.978;2023-07-13T03:24:21;19.10;99.90
17571;DHT22;8903;52.220;20.978;2023-07-13T03:26:51;19.10;99.90
17571;DHT22;8903;52.220;20.978;2023-07-13T03:29:18;19.10;99.90
17571;DHT22;8903;52.220;20.978;2023-07-13T03:31:45;19.10;99.90
17571;DHT22;8903;52.220;20.978;2023-07-13T03:34:13;19.10;99.90
17571;DHT22;8903;52.220;20.978;2023-07-13T03:36:42;19.10;99.90
17571;DHT22;8903;52.220;20.978;2023-07-13T03:39:12;19.10;99.90
17571;DHT22;8903;52.220;20.978;2023-07-13T03:41:48;19.20;99.90
17571;DHT22;8903;52.220;20.978;2023-07-13T03:44:16;19.20;99.90
17571;DHT22;8903;52.220;20.978;2023-07-13T03:46:43;19.30;99.90
17571;DHT22;8903;52.220;20.978;2023-07-13T03:49:11;19.30;99.90
17571;DHT22;8903;52.220;20.978;2023-07-13T03:51:38;19.30;99.90
17571;DHT22;8903;52.220;20.978;2023-07-13T03:54:06;19.30;99.90
17571;DHT22;8903;52.220;20.978;2023-07-13T03:56:33;19.40;99.90
17571;DHT22;8903;52.220;20.978;2023-07-13T03:59:02;19.50;99.90
17571;DHT22;8903;52.220;20.978;2023-07-13T04:01:30;19.60;99.90
17571;DHT22;8903;52.220;20.978;2023-07-13T04:03:57;19.60;99.90
17571;DHT22;8903;52.220;20.978;2023-07-13T04:06:28;19.70;99.90
17571;DHT22;8903;52.220;20.978;2023-07-13T04:08:57;19.70;99.90
17571;DHT22;8903;52.220;20.978;2023-07-13T04:11:28;19.80;99.90
17571;DHT22;8903;52.220;20.978;2023-07-13T04:13:57;19.80;99.90
17571;DHT22;8903;52.220;20.978;2023-07-13T04:16:25;19.90;99.90
17571;DHT22;8903;52.220;20.978;2023-07-13T04:18:52;20.00;99.90
17571;DHT22;8903;52.220;20.978;2023-07-13T04:21:20;20.20;99.90
17571;DHT22;8903;52.220;20.978;2023-07-13T04:23:47;20.30;99.90
17571;DHT22;8903;52.220;20.978;2023-07-13T04:26:14;20.50;99.90
17571;DHT22;8903;52.220;20.978;2023-07-13T04:28:43;20.60;99.90
17571;DHT22;8903;52.220;20.978;2023-07-13T04:31:10;20.80;99.90
17571;DHT22;8903;52.220;20.978;2023-07-13T04:33:37;20.90;99.90
17571;DHT22;8903;52.220;20.978;2023-07-13T04:36:04;20.90;99.90
17571;DHT22;8903;52.220;20.978;2023-07-13T04:38:32;20.90;99.90
17571;DHT22;8903;52.220;20.978;2023-07-13T04:41:00;21.00;99.90
17571;DHT22;8903;52.220;20.978;2023-07-13T04:43:29;21.10;99.90
17571;DHT22;8903;52.220;20.978;2023-07-13T04:46:02;21.20;99.90
17571;DHT22;8903;52.220;20.978;2023-07-13T04:48:29;21.20;99.90
17571;DHT22;8903;52.220;20.978;2023-07-13T04:50:57;21.20;99.90
17571;DHT22;8903;52.220;20.978;2023-07-13T04:53:25;21.20;99.90
17571;DHT22;8903;52.220;20.978;2023-07-13T04:55:52;21.20;99.90
17571;DHT22;8903;52.220;20.978;2023-07-13T04:58:19;21.20;99.90
17571;DHT22;8903;52.220;20.978;2023-07-13T05:00:47;21.30;99.90
17571;DHT22;8903;52.220;20.978;2023-07-13T05:03:15;21.30;99.90
17571;DHT22;8903;52.220;20.978;2023-07-13T05:05:42;21.40;99.90
17571;DHT22;8903;52.220;20.978;2023-07-13T05:08:09;21.50;99.90
17571;DHT22;8903;52.220;20.978;2023-07-13T05:10:36;21.60;99.90
17571;DHT22;8903;52.220;20.978;2023-07-13T05:13:03;21.60;99.90
17571;DHT22;8903;52.220;20.978;2023-07-13T05:15:30;21.80;99.90
17571;DHT22;8903;52.220;20.978;2023-07-13T05:17:57;21.80;99.90
17571;DHT22;8903;52.220;20.978;2023-07-13T05:20:25;21.90;99.90
17571;DHT22;8903;52.220;20.978;2023-07-13T05:22:52;22.00;99.90
17571;DHT22;8903;52.220;20.978;2023-07-13T05:25:19;22.10;99.90
17571;DHT22;8903;52.220;20.978;2023-07-13T05:27:46;22.10;99.90
17571;DHT22;8903;52.220;20.978;2023-07-13T05:30:13;22.20;99.90
17571;DHT22;8903;52.220;20.978;2023-07-13T05:32:41;22.20;99.90
17571;DHT22;8903;52.220;20.978;2023-07-13T05:35:08;22.40;99.90
17571;DHT22;8903;52.220;20.978;2023-07-13T05:37:37;22.40;99.90
17571;DHT22;8903;52.220;20.978;2023-07-13T05:40:05;22.50;99.90
17571;DHT22;8903;52.220;20.978;2023-07-13T05:42:32;22.50;99.90
17571;DHT22;8903;52.220;20.978;2023-07-13T05:44:59;22.60;99.90
17571;DHT22;8903;52.220;20.978;2023-07-13T05:47:26;22.70;99.90
17571;DHT22;8903;52.220;20.978;2023-07-13T05:49:53;22.70;99.90
17571;DHT22;8903;52.220;20.978;2023-07-13T05:52:20;22.80;99.90
17571;DHT22;8903;52.220;20.978;2023-07-13T05:54:49;22.80;99.90
17571;DHT22;8903;52.220;20.978;2023-07-13T05:57:15;22.90;99.90
17571;DHT22;8903;52.220;20.978;2023-07-13T05:59:42;23.00;99.90
17571;DHT22;8903;52.220;20.978;2023-07-13T06:02:10;23.10;99.90
17571;DHT22;8903;52.220;20.978;2023-07-13T06:04:37;23.10;99.90
17571;DHT22;8903;52.220;20.978;2023-07-13T06:07:04;23.10;99.90
17571;DHT22;8903;52.220;20.978;2023-07-13T06:09:31;23.20;99.90
17571;DHT22;8903;52.220;20.978;2023-07-13T06:11:59;23.30;99.90
17571;DHT22;8903;52.220;20.978;2023-07-13T06:14:26;23.40;99.90
17571;DHT22;8903;52.220;20.978;2023-07-13T06:16:53;23.40;99.90
17571;DHT22;8903;52.220;20.978;2023-07-13T06:19:20;23.40;99.90
17571;DHT22;8903;52.220;20.978;2023-07-13T06:21:47;23.40;99.90
17571;DHT22;8903;52.220;20.978;2023-07-13T06:24:14;23.40;99.90
17571;DHT22;8903;52.220;20.978;2023-07-13T06:26:41;23.50;99.90
17571;DHT22;8903;52.220;20.978;2023-07-13T06:29:09;23.50;99.90
17571;DHT22;8903;52.220;20.978;2023-07-13T06:31:36;23.60;99.90
17571;DHT22;8903;52.220;20.978;2023-07-13T06:34:03;23.60;99.90
17571;DHT22;8903;52.220;20.978;2023-07-13T06:36:30;23.60;99.90
17571;DHT22;8903;52.220;20.978;2023-07-13T06:38:57;23.70;99.90
17571;DHT22;8903;52.220;20.978;2023-07-13T06:41:24;23.70;99.90
17571;DHT22;8903;52.220;20.978;2023-07-13T06:43:52;23.80;99.90
17571;DHT22;8903;52.220;20.978;2023-07-13T06:46:21;23.80;99.90
17571;DHT22;8903;52.220;20.978;2023-07-13T06:48:48;23.80;99.90
17571;DHT22;8903;52.220;20.978;2023-07-13T06:51:15;23.90;99.90
17571;DHT22;8903;52.220;20.978;2023-07-13T06:53:42;24.00;99.90
17571;DHT22;8903;52.220;20.978;2023-07-13T06:56:10;24.00;99.90
17571;DHT22;8903;52.220;20.978;2023-07-13T06:58:37;24.10;99.90
17571;DHT22;8903;52.220;20.978;2023-07-13T07:01:04;24.10;99.90
17571;DHT22;8903;52.220;20.978;2023-07-13T07:03:33;24.30;99.90
17571;DHT22;8903;52.220;20.978;2023-07-13T07:06:01;24.30;99.90
17571;DHT22;8903;52.220;20.978;2023-07-13T07:08:28;24.40;99.90
17571;DHT22;8903;52.220;20.978;2023-07-13T07:10:55;24.40;99.90
17571;DHT22;8903;52.220;20.978;2023-07-13T07:13:22;24.50;99.90
17571;DHT22;8903;52.220;20.978;2023-07-13T07:15:50;24.60;99.90
17571;DHT22;8903;52.220;20.978;2023-07-13T07:18:17;24.70;99.90
17571;DHT22;8903;52.220;20.978;2023-07-13T07:20:46;24.70;99.90
17571;DHT22;8903;52.220;20.978;2023-07-13T07:23:13;24.70;99.90
17571;DHT22;8903;52.220;20.978;2023-07-13T07:25:40;24.80;99.90
17571;DHT22;8903;52.220;20.978;2023-07-13T07:28:07;24.90;99.90
17571;DHT22;8903;52.220;20.978;2023-07-13T07:30:34;25.00;99.90
17571;DHT22;8903;52.220;20.978;2023-07-13T07:33:02;25.10;99.90
17571;DHT22;8903;52.220;20.978;2023-07-13T07:35:28;25.10;99.70
17571;DHT22;8903;52.220;20.978;2023-07-13T07:37:57;25.00;98.70
17571;DHT22;8903;52.220;20.978;2023-07-13T07:40:24;24.90;98.40
17571;DHT22;8903;52.220;20.978;2023-07-13T07:42:51;25.00;99.50
17571;DHT22;8903;52.220;20.978;2023-07-13T07:45:19;25.00;99.70
17571;DHT22;8903;52.220;20.978;2023-07-13T07:47:46;25.10;99.90
17571;DHT22;8903;52.220;20.978;2023-07-13T07:50:13;25.20;99.90
17571;DHT22;8903;52.220;20.978;2023-07-13T07:52:40;25.30;99.10
17571;DHT22;8903;52.220;20.978;2023-07-13T07:55:10;25.30;99.00
17571;DHT22;8903;52.220;20.978;2023-07-13T07:57:37;25.20;99.40
17571;DHT22;8903;52.220;20.978;2023-07-13T08:00:05;25.20;98.60
17571;DHT22;8903;52.220;20.978;2023-07-13T08:02:40;25.20;98.30
17571;DHT22;8903;52.220;20.978;2023-07-13T08:05:07;25.30;98.50
17571;DHT22;8903;52.220;20.978;2023-07-13T08:07:35;25.40;98.70
17571;DHT22;8903;52.220;20.978;2023-07-13T08:10:02;25.40;98.60
17571;DHT22;8903;52.220;20.978;2023-07-13T08:12:33;25.50;98.20
17571;DHT22;8903;52.220;20.978;2023-07-13T08:15:00;25.60;98.40
17571;DHT22;8903;52.220;20.978;2023-07-13T08:17:27;25.70;98.30
17571;DHT22;8903;52.220;20.978;2023-07-13T08:19:54;25.80;97.70
17571;DHT22;8903;52.220;20.978;2023-07-13T08:22:21;25.90;97.90
17571;DHT22;8903;52.220;20.978;2023-07-13T08:24:48;25.90;98.40
17571;DHT22;8903;52.220;20.978;2023-07-13T08:27:21;25.90;98.50
17571;DHT22;8903;52.220;20.978;2023-07-13T08:29:51;26.00;99.10
17571;DHT22;8903;52.220;20.978;2023-07-13T08:32:18;26.10;99.00
17571;DHT22;8903;52.220;20.978;2023-07-13T08:34:45;26.00;98.90
17571;DHT22;8903;52.220;20.978;2023-07-13T08:37:13;26.00;99.20
17571;DHT22;8903;52.220;20.978;2023-07-13T08:39:40;25.90;99.70
17571;DHT22;8903;52.220;20.978;2023-07-13T08:42:12;26.00;99.90
17571;DHT22;8903;52.220;20.978;2023-07-13T08:44:57;26.10;99.90
17571;DHT22;8903;52.220;20.978;2023-07-13T08:47:28;26.20;99.90
17571;DHT22;8903;52.220;20.978;2023-07-13T08:49:57;26.40;99.90
17571;DHT22;8903;52.220;20.978;2023-07-13T08:52:30;26.50;99.90
17571;DHT22;8903;52.220;20.978;2023-07-13T08:55:04;26.60;99.90
17571;DHT22;8903;52.220;20.978;2023-07-13T08:57:34;26.60;99.20
17571;DHT22;8903;52.220;20.978;2023-07-13T09:00:03;26.60;99.30
17571;DHT22;8903;52.220;20.978;2023-07-13T09:02:39;26.70;99.20
17571;DHT22;8903;52.220;20.978;2023-07-13T09:05:12;26.90;98.90
17571;DHT22;8903;52.220;20.978;2023-07-13T09:07:52;27.10;98.50
17571;DHT22;8903;52.220;20.978;2023-07-13T09:10:27;27.20;98.40
17571;DHT22;8903;52.220;20.978;2023-07-13T09:13:04;27.10;98.40
17571;DHT22;8903;52.220;20.978;2023-07-13T09:15:36;27.30;98.30
17571;DHT22;8903;52.220;20.978;2023-07-13T09:18:10;27.40;98.10
17571;DHT22;8903;52.220;20.978;2023-07-13T09:20:42;27.60;98.20
17571;DHT22;8903;52.220;20.978;2023-07-13T09:23:15;27.60;98.10
17571;DHT22;8903;52.220;20.978;2023-07-13T09:25:45;27.70;98.30
17571;DHT22;8903;52.220;20.978;2023-07-13T09:28:17;27.60;98.30
17571;DHT22;8903;52.220;20.978;2023-07-13T09:30:51;27.60;98.10
17571;DHT22;8903;52.220;20.978;2023-07-13T09:33:20;27.60;98.20
17571;DHT22;8903;52.220;20.978;2023-07-13T09:35:48;27.70;98.20
17571;DHT22;8903;52.220;20.978;2023-07-13T09:38:17;27.80;98.30
17571;DHT22;8903;52.220;20.978;2023-07-13T09:40:59;27.90;98.00
17571;DHT22;8903;52.220;20.978;2023-07-13T09:43:28;27.70;98.30
17571;DHT22;8903;52.220;20.978;2023-07-13T09:45:56;27.60;98.50
17571;DHT22;8903;52.220;20.978;2023-07-13T09:48:34;27.20;98.30
17571;DHT22;8903;52.220;20.978;2023-07-13T09:51:07;26.60;98.50
17571;DHT22;8903;52.220;20.978;2023-07-13T09:53:41;26.20;99.00
17571;DHT22;8903;52.220;20.978;2023-07-13T09:56:19;26.00;98.90
17571;DHT22;8903;52.220;20.978;2023-07-13T09:58:46;25.60;99.10
17571;DHT22;8903;52.220;20.978;2023-07-13T10:01:14;25.50;99.40
17571;DHT22;8903;52.220;20.978;2023-07-13T10:03:52;25.40;99.50
17571;DHT22;8903;52.220;20.978;2023-07-13T10:06:21;25.50;99.40
17571;DHT22;8903;52.220;20.978;2023-07-13T10:08:50;25.40;99.30
17571;DHT22;8903;52.220;20.978;2023-07-13T10:11:19;25.30;99.30
17571;DHT22;8903;52.220;20.978;2023-07-13T10:13:51;25.30;99.30
17571;DHT22;8903;52.220;20.978;2023-07-13T10:16:23;25.10;99.50
17571;DHT22;8903;52.220;20.978;2023-07-13T10:18:56;24.80;99.80
17571;DHT22;8903;52.220;20.978;2023-07-13T10:21:30;24.50;99.90
17571;DHT22;8903;52.220;20.978;2023-07-13T10:24:04;24.30;99.90
17571;DHT22;8903;52.220;20.978;2023-07-13T10:26:33;24.20;99.90
17571;DHT22;8903;52.220;20.978;2023-07-13T10:29:04;24.20;99.90
17571;DHT22;8903;52.220;20.978;2023-07-13T10:31:34;24.10;99.90
17571;DHT22;8903;52.220;20.978;2023-07-13T10:34:03;23.90;99.90
17571;DHT22;8903;52.220;20.978;2023-07-13T10:36:34;23.80;99.90
17571;DHT22;8903;52.220;20.978;2023-07-13T10:39:04;23.40;99.90
17571;DHT22;8903;52.220;20.978;2023-07-13T10:41:35;22.90;99.90
17571;DHT22;8903;52.220;20.978;2023-07-13T10:44:04;22.60;99.90
17571;DHT22;8903;52.220;20.978;2023-07-13T10:46:35;21.70;99.90
17571;DHT22;8903;52.220;20.978;2023-07-13T10:49:05;21.20;99.90
17571;DHT22;8903;52.220;20.978;2023-07-13T10:51:32;20.60;99.90
17571;DHT22;8903;52.220;20.978;2023-07-13T10:54:14;20.20;99.90
17571;DHT22;8903;52.220;20.978;2023-07-13T10:56:43;19.70;99.90
17571;DHT22;8903;52.220;20.978;2023-07-13T10:59:14;19.30;99.90
17571;DHT22;8903;52.220;20.978;2023-07-13T11:01:52;18.70;99.90
17571;DHT22;8903;52.220;20.978;2023-07-13T11:04:20;18.40;99.90
17571;DHT22;8903;52.220;20.978;2023-07-13T11:06:50;18.20;99.90
17571;DHT22;8903;52.220;20.978;2023-07-13T11:09:32;18.30;99.90
17571;DHT22;8903;52.220;20.978;2023-07-13T11:12:06;18.10;99.90
17571;DHT22;8903;52.220;20.978;2023-07-13T11:14:36;18.00;99.90
17571;DHT22;8903;52.220;20.978;2023-07-13T11:17:38;18.10;99.90
17571;DHT22;8903;52.220;20.978;2023-07-13T11:20:24;18.20;99.90
17571;DHT22;8903;52.220;20.978;2023-07-13T11:23:15;18.40;99.90
17571;DHT22;8903;52.220;20.978;2023-07-13T11:25:44;18.60;99.90
17571;DHT22;8903;52.220;20.978;2023-07-13T11:28:21;18.50;99.90
17571;DHT22;8903;52.220;20.978;2023-07-13T11:30:59;18.60;99.90
17571;DHT22;8903;52.220;20.978;2023-07-13T11:36:35;18.70;99.90
17571;DHT22;8903;52.220;20.978;2023-07-13T11:39:18;18.70;99.90
17571;DHT22;8903;52.220;20.978;2023-07-13T11:41:50;18.60;99.90
17571;DHT22;8903;52.220;20.978;2023-07-13T11:44:20;18.50;99.90
17571;DHT22;8903;52.220;20.978;2023-07-13T11:46:48;18.20;99.90
17571;DHT22;8903;52.220;20.978;2023-07-13T11:49:19;18.10;99.90
17571;DHT22;8903;52.220;20.978;2023-07-13T11:51:47;18.20;99.90
17571;DHT22;8903;52.220;20.978;2023-07-13T11:54:24;18.20;99.90
17571;DHT22;8903;52.220;20.978;2023-07-13T11:56:53;18.10;99.90
17571;DHT22;8903;52.220;20.978;2023-07-13T11:59:20;18.10;99.90
17571;DHT22;8903;52.220;20.978;2023-07-13T12:01:51;17.90;99.90
17571;DHT22;8903;52.220;20.978;2023-07-13T12:04:23;17.50;99.90
17571;DHT22;8903;52.220;20.978;2023-07-13T12:07:05;17.50;99.90
17571;DHT22;8903;52.220;20.978;2023-07-13T12:09:33;17.50;99.90
17571;DHT22;8903;52.220;20.978;2023-07-13T12:12:02;17.50;99.90
17571;DHT22;8903;52.220;20.978;2023-07-13T12:14:34;17.60;99.90
17571;DHT22;8903;52.220;20.978;2023-07-13T12:17:01;17.60;99.90
17571;DHT22;8903;52.220;20.978;2023-07-13T12:19:31;17.60;99.90
17571;DHT22;8903;52.220;20.978;2023-07-13T12:21:58;17.70;99.90
17571;DHT22;8903;52.220;20.978;2023-07-13T12:24:26;17.80;99.90
17571;DHT22;8903;52.220;20.978;2023-07-13T12:26:58;18.00;99.90
17571;DHT22;8903;52.220;20.978;2023-07-13T12:29:26;18.20;99.90
17571;DHT22;8903;52.220;20.978;2023-07-13T12:31:54;18.30;99.90
17571;DHT22;8903;52.220;20.978;2023-07-13T12:34:23;18.50;99.90
17571;DHT22;8903;52.220;20.978;2023-07-13T12:36:54;18.50;99.90
17571;DHT22;8903;52.220;20.978;2023-07-13T12:39:24;18.60;99.90
17571;DHT22;8903;52.220;20.978;2023-07-13T12:41:52;18.60;99.90
17571;DHT22;8903;52.220;20.978;2023-07-13T12:44:26;18.80;99.90
17571;DHT22;8903;52.220;20.978;2023-07-13T12:46:57;18.80;99.90
17571;DHT22;8903;52.220;20.978;2023-07-13T12:49:28;18.90;99.90
17571;DHT22;8903;52.220;20.978;2023-07-13T12:52:02;18.80;99.90
17571;DHT22;8903;52.220;20.978;2023-07-13T12:54:30;18.90;99.90
17571;DHT22;8903;52.220;20.978;2023-07-13T12:56:59;19.00;99.90
17571;DHT22;8903;52.220;20.978;2023-07-13T12:59:32;19.00;99.90
17571;DHT22;8903;52.220;20.978;2023-07-13T13:02:18;18.70;99.90
17571;DHT22;8903;52.220;20.978;2023-07-13T13:04:48;18.60;99.90
17571;DHT22;8903;52.220;20.978;2023-07-13T13:07:16;18.70;99.90
17571;DHT22;8903;52.220;20.978;2023-07-13T13:09:46;18.80;99.90
17571;DHT22;8903;52.220;20.978;2023-07-13T13:12:13;18.90;99.90
17571;DHT22;8903;52.220;20.978;2023-07-13T13:14:40;19.00;99.90
17571;DHT22;8903;52.220;20.978;2023-07-13T13:17:18;19.00;99.90
17571;DHT22;8903;52.220;20.978;2023-07-13T13:19:46;19.10;99.90
17571;DHT22;8903;52.220;20.978;2023-07-13T13:22:13;19.20;99.90
17571;DHT22;8903;52.220;20.978;2023-07-13T13:24:41;19.20;99.90
17571;DHT22;8903;52.220;20.978;2023-07-13T13:27:14;19.30;99.90
17571;DHT22;8903;52.220;20.978;2023-07-13T13:29:43;19.50;99.90
17571;DHT22;8903;52.220;20.978;2023-07-13T13:32:12;19.60;99.90
17571;DHT22;8903;52.220;20.978;2023-07-13T13:34:39;19.60;99.90
17571;DHT22;8903;52.220;20.978;2023-07-13T13:37:17;19.60;99.90
17571;DHT22;8903;52.220;20.978;2023-07-13T13:39:46;19.60;99.90
17571;DHT22;8903;52.220;20.978;2023-07-13T13:42:13;19.50;99.90
17571;DHT22;8903;52.220;20.978;2023-07-13T13:44:40;19.50;99.90
17571;DHT22;8903;52.220;20.978;2023-07-13T13:47:21;19.60;99.90
17571;DHT22;8903;52.220;20.978;2023-07-13T13:49:49;19.70;99.90
17571;DHT22;8903;52.220;20.978;2023-07-13T13:52:16;19.70;99.90
17571;DHT22;8903;52.220;20.978;2023-07-13T13:54:45;19.80;99.90
17571;DHT22;8903;52.220;20.978;2023-07-13T13:57:11;19.80;99.90
17571;DHT22;8903;52.220;20.978;2023-07-13T13:59:39;19.80;99.90
17571;DHT22;8903;52.220;20.978;2023-07-13T14:02:19;19.70;99.90
17571;DHT22;8903;52.220;20.978;2023-07-13T14:04:56;19.90;99.90
17571;DHT22;8903;52.220;20.978;2023-07-13T14:07:24;19.80;99.90
17571;DHT22;8903;52.220;20.978;2023-07-13T14:09:57;19.80;99.90
17571;DHT22;8903;52.220;20.978;2023-07-13T14:12:24;19.80;99.90
17571;DHT22;8903;52.220;20.978;2023-07-13T14:14:54;19.90;99.90
17571;DHT22;8903;52.220;20.978;2023-07-13T14:17:25;20.10;99.90
17571;DHT22;8903;52.220;20.978;2023-07-13T14:19:52;20.10;99.90
17571;DHT22;8903;52.220;20.978;2023-07-13T14:22:23;20.10;99.90
17571;DHT22;8903;52.220;20.978;2023-07-13T14:24:53;20.10;99.90
17571;DHT22;8903;52.220;20.978;2023-07-13T14:27:20;20.20;99.90
17571;DHT22;8903;52.220;20.978;2023-07-13T14:29:47;20.20;99.90
17571;DHT22;8903;52.220;20.978;2023-07-13T14:32:14;20.20;99.90
17571;DHT22;8903;52.220;20.978;2023-07-13T14:34:41;20.20;99.90
17571;DHT22;8903;52.220;20.978;2023-07-13T14:37:13;20.10;99.90
17571;DHT22;8903;52.220;20.978;2023-07-13T14:39:43;20.20;99.90
17571;DHT22;8903;52.220;20.978;2023-07-13T14:42:11;20.20;99.90
17571;DHT22;8903;52.220;20.978;2023-07-13T14:44:39;20.20;99.90
17571;DHT22;8903;52.220;20.978;2023-07-13T14:47:07;20.30;99.90
17571;DHT22;8903;52.220;20.978;2023-07-13T14:49:36;20.30;99.90
17571;DHT22;8903;52.220;20.978;2023-07-13T14:52:11;20.30;99.90
17571;DHT22;8903;52.220;20.978;2023-07-13T14:54:39;20.20;99.90
17571;DHT22;8903;52.220;20.978;2023-07-13T14:57:11;20.10;99.90
17571;DHT22;8903;52.220;20.978;2023-07-13T14:59:39;20.10;99.90
17571;DHT22;8903;52.220;20.978;2023-07-13T15:02:16;20.10;99.90
17571;DHT22;8903;52.220;20.978;2023-07-13T15:04:43;20.10;99.90
17571;DHT22;8903;52.220;20.978;2023-07-13T15:07:11;20.10;99.90
17571;DHT22;8903;52.220;20.978;2023-07-13T15:09:39;20.10;99.90
17571;DHT22;8903;52.220;20.978;2023-07-13T15:12:07;20.00;99.90
17571;DHT22;8903;52.220;20.978;2023-07-13T15:14:35;20.00;99.90
17571;DHT22;8903;52.220;20.978;2023-07-13T15:17:02;20.10;99.90
17571;DHT22;8903;52.220;20.978;2023-07-13T15:19:30;20.10;99.90
17571;DHT22;8903;52.220;20.978;2023-07-13T15:21:58;20.10;99.90
17571;DHT22;8903;52.220;20.978;2023-07-13T15:24:27;19.90;99.90
17571;DHT22;8903;52.220;20.978;2023-07-13T15:26:54;19.80;99.90
17571;DHT22;8903;52.220;20.978;2023-07-13T15:29:21;19.80;99.90
17571;DHT22;8903;52.220;20.978;2023-07-13T15:31:50;19.70;99.90
17571;DHT22;8903;52.220;20.978;2023-07-13T15:34:22;19.60;99.90
17571;DHT22;8903;52.220;20.978;2023-07-13T15:36:50;19.60;99.90
17571;DHT22;8903;52.220;20.978;2023-07-13T15:39:17;19.60;99.90
17571;DHT22;8903;52.220;20.978;2023-07-13T15:41:45;19.60;99.90
17571;DHT22;8903;52.220;20.978;2023-07-13T15:44:23;19.60;99.90
17571;DHT22;8903;52.220;20.978;2023-07-13T15:46:51;19.60;99.90